createdAt,value
2022-12-14T00:01:54.218Z,71.44
2022-12-14T00:04:21.814Z,71.58
2022-12-14T00:06:49.386Z,71.62
2022-12-14T00:09:16.945Z,71.88
2022-12-14T00:11:44.477Z,71.95
2022-12-14T00:14:12.253Z,72.03
2022-12-14T00:16:39.892Z,72.22
2022-12-14T00:19:07.503Z,72.11
2022-12-14T00:21:35.021Z,71.95
2022-12-14T00:24:02.734Z,72.23
2022-12-14T00:26:32.361Z,72.27
2022-12-14T00:29:01.636Z,72.38
2022-12-14T00:31:31.313Z,71.65
2022-12-14T00:34:01.388Z,71.38
2022-12-14T00:36:31.757Z,71.88
2022-12-14T00:38:59.705Z,72.04
2022-12-14T00:41:27.309Z,72.09
2022-12-14T00:43:55.006Z,72.06
2022-12-14T00:46:22.532Z,72.72
2022-12-14T00:48:50.273Z,72.57
2022-12-14T00:51:18.517Z,72.91
2022-12-14T00:53:46.150Z,72.71
2022-12-14T00:56:13.679Z,72.72
2022-12-14T00:58:41.339Z,72.44
2022-12-14T01:01:15.068Z,72.37
2022-12-14T01:03:43.301Z,72.14
2022-12-14T01:06:16.561Z,72.28
2022-12-14T01:08:44.305Z,72.61
2022-12-14T01:11:12.454Z,72.77
2022-12-14T01:13:40.654Z,72.76
2022-12-14T01:16:12.386Z,72.78
2022-12-14T01:18:42.649Z,73.14
2022-12-14T01:21:15.035Z,72.73
2022-12-14T01:23:44.230Z,72.47
2022-12-14T01:26:16.540Z,72.50
2022-12-14T01:28:45.919Z,72.20
2022-12-14T01:31:17.104Z,72.07
2022-12-14T01:33:45.381Z,72.14
2022-12-14T01:36:18.674Z,71.54
2022-12-14T01:38:47.046Z,71.39
2022-12-14T01:41:24.762Z,70.97
2022-12-14T01:43:55.205Z,71.20
2022-12-14T01:46:41.801Z,69.31
2022-12-14T01:49:18.289Z,70.17
2022-12-14T01:51:54.303Z,69.77
2022-12-14T01:54:22.765Z,70.22
2022-12-14T01:56:50.804Z,70.74
2022-12-14T01:59:29.084Z,71.07
2022-12-14T02:02:00.279Z,71.15
2022-12-14T02:04:28.503Z,71.25
2022-12-14T02:07:00.966Z,70.82
2022-12-14T02:09:34.424Z,71.12
2022-12-14T02:12:16.667Z,70.40
2022-12-14T02:14:45.428Z,70.41
2022-12-14T02:17:14.866Z,70.55
2022-12-14T02:19:49.464Z,70.38
2022-12-14T02:22:54.503Z,69.70
2022-12-14T02:25:57.077Z,69.42
2022-12-14T02:29:07.344Z,69.41
2022-12-14T02:31:46.854Z,69.49
2022-12-14T02:35:04.659Z,69.29
2022-12-14T02:37:49.070Z,69.63
2022-12-14T02:40:25.611Z,69.62
2022-12-14T02:42:58.797Z,69.69
2022-12-14T02:45:41.315Z,69.79
2022-12-14T02:48:36.771Z,69.27
2022-12-14T02:51:31.315Z,69.86
2022-12-14T02:54:09.401Z,69.97
2022-12-14T02:56:44.639Z,70.29
2022-12-14T02:59:12.401Z,69.81
2022-12-14T03:01:47.123Z,69.85
2022-12-14T03:04:15.307Z,70.20
2022-12-14T03:06:59.726Z,70.15
2022-12-14T03:09:30.191Z,69.89
2022-12-14T03:12:01.300Z,69.87
2022-12-14T03:14:34.537Z,69.33
2022-12-14T03:17:19.640Z,69.44
2022-12-14T03:19:58.066Z,69.84
2022-12-14T03:22:39.028Z,69.46
2022-12-14T03:25:13.447Z,68.98
2022-12-14T03:27:47.377Z,69.14
2022-12-14T03:30:31.713Z,69.40
2022-12-14T03:33:11.822Z,69.37
2022-12-14T03:35:45.729Z,68.94
2022-12-14T03:38:41.207Z,68.29
2022-12-14T03:41:20.653Z,68.23
2022-12-14T03:44:06.584Z,67.89
2022-12-14T03:46:41.700Z,68.41
2022-12-14T03:49:53.011Z,68.05
2022-12-14T03:52:37.927Z,67.67
2022-12-14T03:55:23.853Z,67.77
2022-12-14T03:58:09.380Z,67.22
2022-12-14T04:00:49.807Z,66.99
2022-12-14T04:03:29.610Z,67.68
2022-12-14T04:06:21.689Z,66.49
2022-12-14T04:08:58.452Z,66.68
2022-12-14T04:11:49.435Z,66.84
2022-12-14T04:14:41.094Z,66.03
2022-12-14T04:17:33.707Z,66.36
2022-12-14T04:20:10.921Z,66.34
2022-12-14T04:22:44.102Z,66.40
2022-12-14T04:25:44.111Z,66.10
2022-12-14T04:28:56.503Z,65.15
2022-12-14T04:31:28.870Z,66.29
2022-12-14T04:34:02.330Z,66.42
2022-12-14T04:36:44.719Z,65.82
2022-12-14T04:39:18.997Z,66.33
2022-12-14T04:41:52.400Z,66.74
2022-12-14T04:44:49.156Z,66.04
2022-12-14T04:47:18.295Z,66.23
2022-12-14T04:49:50.940Z,66.37
2022-12-14T04:52:32.049Z,66.40
2022-12-14T04:55:09.907Z,65.79
2022-12-14T04:58:12.673Z,65.62
2022-12-14T05:00:53.683Z,66.07
2022-12-14T05:03:34.937Z,66.56
2022-12-14T05:06:10.500Z,66.29
2022-12-14T05:09:13.322Z,65.98
2022-12-14T05:11:53.989Z,66.24
2022-12-14T05:15:03.727Z,66.10
2022-12-14T05:17:35.583Z,66.26
2022-12-14T05:20:03.625Z,66.39
2022-12-14T05:22:31.152Z,66.28
2022-12-14T05:24:58.672Z,66.16
2022-12-14T05:27:26.364Z,66.23
2022-12-14T05:29:53.945Z,66.25
2022-12-14T05:32:21.397Z,66.15
2022-12-14T05:34:48.940Z,66.21
2022-12-14T05:37:18.475Z,65.95
2022-12-14T05:39:46.329Z,65.95
2022-12-14T05:42:13.787Z,66.12
2022-12-14T05:44:41.325Z,65.74
2022-12-14T05:47:08.890Z,65.51
2022-12-14T05:49:36.511Z,65.59
2022-12-14T05:52:04.114Z,65.62
2022-12-14T05:54:31.640Z,65.61
2022-12-14T05:56:59.080Z,65.50
2022-12-14T05:59:26.779Z,65.57
2022-12-14T06:01:54.326Z,65.53
2022-12-14T06:04:22.044Z,65.58
2022-12-14T06:06:50.555Z,65.80
2022-12-14T06:09:18.597Z,65.48
2022-12-14T06:11:47.188Z,65.44
2022-12-14T06:14:14.879Z,65.32
2022-12-14T06:16:44.819Z,65.42
2022-12-14T06:19:13.659Z,65.27
2022-12-14T06:21:43.401Z,65.21
2022-12-14T06:24:12.595Z,64.91
2022-12-14T06:26:41.096Z,64.96
2022-12-14T06:29:15.650Z,64.98
2022-12-14T06:31:43.178Z,65.13
2022-12-14T06:34:10.853Z,65.04
2022-12-14T06:36:42.608Z,65.17
2022-12-14T06:39:15.716Z,65.23
2022-12-14T06:41:44.065Z,65.37
2022-12-14T06:44:14.271Z,64.95
2022-12-14T06:46:42.556Z,64.96
2022-12-14T06:49:14.964Z,64.87
2022-12-14T06:51:43.402Z,65.34
2022-12-14T06:54:12.487Z,65.15
2022-12-14T06:56:41.757Z,65.39
2022-12-14T06:59:10.132Z,64.95
2022-12-14T07:01:39.111Z,65.27
2022-12-14T07:04:08.461Z,65.00
2022-12-14T07:06:40.788Z,64.58
2022-12-14T07:09:13.611Z,63.89
2022-12-14T07:11:42.207Z,64.66
2022-12-14T07:14:16.169Z,64.31
2022-12-14T07:16:47.815Z,64.44
2022-12-14T07:19:17.009Z,64.84
2022-12-14T07:21:44.533Z,64.54
2022-12-14T07:24:12.101Z,64.80
2022-12-14T07:26:39.580Z,64.77
2022-12-14T07:29:07.265Z,64.76
2022-12-14T07:31:34.850Z,64.73
2022-12-14T07:34:02.491Z,64.83
2022-12-14T07:36:30.641Z,64.80
2022-12-14T07:38:58.246Z,64.62
2022-12-14T07:41:30.825Z,64.66
2022-12-14T07:44:00.844Z,64.56
2022-12-14T07:46:32.359Z,64.16
2022-12-14T07:49:01.065Z,64.28
2022-12-14T07:51:32.200Z,63.95
2022-12-14T07:54:01.640Z,63.97
2022-12-14T07:56:35.625Z,63.80
2022-12-14T07:59:04.874Z,63.71
2022-12-14T08:01:36.861Z,63.57
2022-12-14T08:04:07.795Z,63.65
2022-12-14T08:06:36.567Z,63.80
2022-12-14T08:09:07.539Z,64.11
2022-12-14T08:11:35.305Z,64.02
2022-12-14T08:14:05.093Z,63.94
2022-12-14T08:16:33.220Z,64.22
2022-12-14T08:19:01.569Z,64.68
2022-12-14T08:21:29.984Z,64.32
2022-12-14T08:23:59.077Z,64.92
2022-12-14T08:26:33.496Z,64.79
2022-12-14T08:29:04.055Z,64.61
2022-12-14T08:31:32.440Z,64.58
2022-12-14T08:34:01.200Z,64.88
2022-12-14T08:36:32.798Z,64.58
2022-12-14T08:39:02.749Z,64.61
2022-12-14T08:41:30.941Z,64.84
2022-12-14T08:44:00.360Z,64.87
2022-12-14T08:46:30.201Z,64.65
2022-12-14T08:48:58.898Z,64.47
2022-12-14T08:51:28.233Z,64.30
2022-12-14T08:53:56.614Z,64.38
2022-12-14T08:56:26.296Z,64.21
2022-12-14T08:58:54.267Z,64.39
2022-12-14T09:01:33.319Z,63.68
2022-12-14T09:04:03.962Z,63.87
2022-12-14T09:06:34.230Z,63.91
2022-12-14T09:09:01.817Z,63.67
2022-12-14T09:11:29.361Z,63.86
2022-12-14T09:13:57.074Z,63.90
2022-12-14T09:16:28.630Z,63.50
2022-12-14T09:18:56.403Z,63.58
2022-12-14T09:21:24.217Z,63.48
2022-12-14T09:23:57.291Z,63.58
2022-12-14T09:26:27.838Z,63.59
2022-12-14T09:28:56.711Z,63.36
2022-12-14T09:31:26.146Z,62.96
2022-12-14T09:33:55.072Z,63.18
2022-12-14T09:36:28.182Z,62.75
2022-12-14T09:38:57.743Z,62.91
2022-12-14T09:41:34.618Z,62.17
2022-12-14T09:44:28.100Z,62.45
2022-12-14T09:47:19.672Z,62.53
2022-12-14T09:49:54.480Z,62.48
2022-12-14T09:52:34.737Z,62.43
2022-12-14T09:55:07.741Z,62.67
2022-12-14T09:57:39.642Z,62.38
2022-12-14T10:00:21.762Z,62.51
2022-12-14T10:02:55.326Z,62.31
2022-12-14T10:05:32.068Z,61.88
2022-12-14T10:08:29.732Z,62.01
2022-12-14T10:11:22.230Z,61.60
2022-12-14T10:13:52.405Z,62.38
2022-12-14T10:16:32.079Z,61.96
2022-12-14T10:19:36.562Z,61.46
2022-12-14T10:22:20.430Z,61.17
2022-12-14T10:25:12.877Z,60.61
2022-12-14T10:28:09.225Z,61.79
2022-12-14T10:30:30.431Z,61.70
2022-12-14T10:33:13.664Z,60.90
2022-12-14T10:36:19.807Z,60.74
2022-12-14T10:38:59.549Z,60.95
2022-12-14T10:41:55.983Z,60.82
2022-12-14T10:44:50.179Z,61.06
2022-12-14T10:47:29.944Z,61.22
2022-12-14T10:50:18.951Z,61.10
2022-12-14T10:52:51.711Z,61.17
2022-12-14T10:55:24.985Z,61.13
2022-12-14T10:57:52.564Z,61.53
2022-12-14T11:00:23.777Z,61.09
2022-12-14T11:02:56.179Z,61.03
2022-12-14T11:05:36.115Z,61.40
2022-12-14T11:08:08.213Z,61.71
2022-12-14T11:10:39.696Z,61.73
2022-12-14T11:13:07.553Z,61.98
2022-12-14T11:15:37.953Z,62.48
2022-12-14T11:18:25.761Z,62.15
2022-12-14T11:20:56.537Z,62.41
2022-12-14T11:23:39.994Z,62.54
2022-12-14T11:26:19.501Z,62.87
2022-12-14T11:28:52.336Z,62.81
2022-12-14T11:31:24.866Z,62.88
2022-12-14T11:33:55.874Z,63.33
2022-12-14T11:36:30.122Z,63.16
2022-12-14T11:39:01.948Z,63.61
2022-12-14T11:41:34.396Z,63.18
2022-12-14T11:44:16.756Z,63.74
2022-12-14T11:46:46.487Z,63.66
2022-12-14T11:49:42.611Z,63.58
2022-12-14T11:52:22.327Z,64.13
2022-12-14T11:54:52.647Z,63.33
2022-12-14T11:57:56.408Z,62.84
2022-12-14T12:00:28.586Z,62.47
2022-12-14T12:03:01.205Z,62.75
2022-12-14T12:05:33.076Z,62.75
2022-12-14T12:08:02.925Z,62.81
2022-12-14T12:10:50.130Z,62.64
2022-12-14T12:13:53.689Z,62.31
2022-12-14T12:16:23.225Z,62.61
2022-12-14T12:19:00.252Z,62.59
2022-12-14T12:21:33.202Z,62.43
2022-12-14T12:24:07.970Z,62.34
2022-12-14T12:26:47.943Z,62.31
2022-12-14T12:29:38.722Z,62.13
2022-12-14T12:32:27.621Z,62.16
2022-12-14T12:35:12.307Z,62.17
2022-12-14T12:38:11.644Z,62.46
2022-12-14T12:41:17.817Z,62.21
2022-12-14T12:43:54.613Z,62.37
2022-12-14T12:46:33.609Z,62.13
2022-12-14T12:49:13.132Z,62.30
2022-12-14T12:51:49.812Z,62.78
2022-12-14T12:54:41.913Z,63.55
2022-12-14T12:57:12.499Z,63.10
2022-12-14T12:59:49.434Z,63.24
2022-12-14T13:02:19.959Z,63.58
2022-12-14T13:04:52.831Z,63.78
2022-12-14T13:07:28.425Z,63.94
2022-12-14T13:10:14.143Z,63.75
2022-12-14T13:12:51.287Z,64.00
2022-12-14T13:15:41.276Z,64.37
2022-12-14T13:18:57.371Z,64.55
2022-12-14T13:21:29.865Z,64.49
2022-12-14T13:23:58.264Z,64.37
2022-12-14T13:26:58.534Z,65.01
2022-12-14T13:29:43.100Z,64.87
2022-12-14T13:32:37.470Z,65.14
2022-12-14T13:35:20.107Z,64.71
2022-12-14T13:38:02.403Z,65.43
2022-12-14T13:40:59.152Z,64.95
2022-12-14T13:43:51.560Z,65.22
2022-12-14T13:46:29.468Z,64.94
2022-12-14T13:49:03.019Z,64.73
2022-12-14T13:51:50.547Z,64.76
2022-12-14T13:54:21.336Z,64.65
2022-12-14T13:56:49.219Z,64.35
2022-12-14T13:59:34.596Z,64.26
2022-12-14T14:02:03.604Z,63.72
2022-12-14T14:04:33.687Z,63.86
2022-12-14T14:07:22.862Z,63.30
2022-12-14T14:09:56.516Z,63.75
2022-12-14T14:12:23.919Z,63.65
2022-12-14T14:14:58.013Z,63.44
2022-12-14T14:17:35.289Z,63.59
2022-12-14T14:20:26.999Z,63.45
2022-12-14T14:23:13.096Z,63.63
2022-12-14T14:25:46.824Z,63.61
2022-12-14T14:28:22.660Z,63.87
2022-12-14T14:30:53.322Z,63.90
2022-12-14T14:33:45.427Z,64.25
2022-12-14T14:36:36.024Z,64.41
2022-12-14T14:39:24.512Z,64.07
2022-12-14T14:41:55.851Z,64.21
2022-12-14T14:44:35.165Z,64.21
2022-12-14T14:47:07.589Z,63.90
2022-12-14T14:49:40.172Z,64.35
2022-12-14T14:52:44.802Z,63.66
2022-12-14T14:55:52.747Z,64.22
2022-12-14T14:58:30.649Z,64.10
2022-12-14T15:01:12.764Z,63.92
2022-12-14T15:03:52.651Z,65.14
2022-12-14T15:06:49.141Z,64.89
2022-12-14T15:09:26.355Z,64.76
2022-12-14T15:11:56.851Z,64.96
2022-12-14T15:14:46.652Z,65.50
2022-12-14T15:17:19.238Z,64.84
2022-12-14T15:19:51.310Z,64.72
2022-12-14T15:22:21.761Z,65.20
2022-12-14T15:24:52.441Z,65.51
2022-12-14T15:27:32.589Z,66.18
2022-12-14T15:30:17.422Z,65.83
2022-12-14T15:33:03.627Z,65.92
2022-12-14T15:35:38.266Z,65.84
2022-12-14T15:38:06.933Z,66.45
2022-12-14T15:40:35.529Z,67.14
2022-12-14T15:43:17.066Z,67.00
2022-12-14T15:45:48.518Z,67.16
2022-12-14T15:48:24.994Z,67.64
2022-12-14T15:51:25.903Z,67.08
2022-12-14T15:53:54.890Z,67.42
2022-12-14T15:56:22.457Z,67.45
2022-12-14T15:58:52.324Z,67.71
2022-12-14T16:01:34.872Z,68.17
2022-12-14T16:04:07.542Z,68.32
2022-12-14T16:06:40.526Z,67.89
2022-12-14T16:09:19.756Z,68.55
2022-12-14T16:11:49.896Z,68.42
2022-12-14T16:14:26.318Z,68.99
2022-12-14T16:16:54.394Z,68.32
2022-12-14T16:19:28.201Z,68.78
2022-12-14T16:22:09.282Z,68.87
2022-12-14T16:24:38.537Z,68.51
2022-12-14T16:27:18.494Z,69.03
2022-12-14T16:30:12.748Z,68.65
2022-12-14T16:32:40.371Z,68.31
2022-12-14T16:35:19.681Z,69.03
2022-12-14T16:37:51.362Z,68.91
2022-12-14T16:40:32.384Z,69.08
2022-12-14T16:43:00.110Z,68.38
2022-12-14T16:45:36.719Z,68.22
2022-12-14T16:48:18.219Z,68.53
2022-12-14T16:50:57.452Z,68.51
2022-12-14T16:53:31.956Z,67.88
2022-12-14T16:56:06.063Z,67.81
2022-12-14T16:58:36.102Z,67.87
2022-12-14T17:01:06.945Z,68.27
2022-12-14T17:03:36.594Z,68.19
2022-12-14T17:06:06.723Z,67.67
2022-12-14T17:08:36.967Z,67.83
2022-12-14T17:11:04.751Z,67.58
2022-12-14T17:13:32.743Z,67.95
2022-12-14T17:16:03.863Z,67.77
2022-12-14T17:18:41.888Z,67.56
2022-12-14T17:21:23.408Z,67.57
2022-12-14T17:23:51.552Z,67.92
2022-12-14T17:26:22.780Z,68.10
2022-12-14T17:28:50.434Z,68.21
2022-12-14T17:31:23.417Z,68.27
2022-12-14T17:33:56.468Z,68.56
2022-12-14T17:36:25.406Z,68.42
2022-12-14T17:38:52.905Z,68.52
2022-12-14T17:41:26.311Z,68.83
2022-12-14T17:43:57.804Z,68.12
2022-12-14T17:46:26.108Z,67.94
2022-12-14T17:48:53.972Z,67.73
2022-12-14T17:51:41.768Z,67.51
2022-12-14T17:54:18.722Z,67.09
2022-12-14T17:56:46.701Z,67.20
2022-12-14T17:59:14.213Z,66.91
2022-12-14T18:01:42.027Z,66.85
2022-12-14T18:04:09.639Z,66.27
2022-12-14T18:06:37.435Z,66.41
2022-12-14T18:09:07.279Z,65.86
2022-12-14T18:11:37.312Z,66.23
2022-12-14T18:14:13.234Z,66.04
2022-12-14T18:16:40.937Z,65.79
2022-12-14T18:19:08.431Z,65.61
2022-12-14T18:21:36.096Z,65.68
2022-12-14T18:24:06.807Z,65.29
2022-12-14T18:26:38.493Z,64.96
2022-12-14T18:29:06.013Z,64.95
2022-12-14T18:31:38.985Z,65.15
2022-12-14T18:34:06.826Z,65.17
2022-12-14T18:36:34.282Z,65.15
2022-12-14T18:39:01.863Z,64.61
2022-12-14T18:41:30.751Z,64.64
2022-12-14T18:44:00.652Z,65.11
2022-12-14T18:46:31.544Z,65.72
2022-12-14T18:48:59.117Z,66.17
2022-12-14T18:51:27.293Z,66.16
2022-12-14T18:53:56.602Z,66.20
2022-12-14T18:56:28.236Z,65.59
2022-12-14T18:58:56.362Z,65.23
2022-12-14T19:01:24.937Z,65.81
2022-12-14T19:03:52.838Z,65.83
2022-12-14T19:09:14.226Z,65.54
2022-12-14T19:11:42.336Z,65.81
2022-12-14T19:14:10.397Z,65.59
2022-12-14T19:16:37.974Z,65.60
2022-12-14T19:19:05.596Z,65.45
2022-12-14T19:21:33.207Z,65.42
2022-12-14T19:24:00.744Z,65.13
2022-12-14T19:26:29.356Z,65.63
2022-12-14T19:28:56.950Z,65.49
2022-12-14T19:31:24.607Z,65.38
2022-12-14T19:33:53.940Z,65.67
2022-12-14T19:36:21.593Z,65.71
2022-12-14T19:38:49.696Z,65.89
2022-12-14T19:41:20.413Z,65.56
2022-12-14T19:43:49.015Z,65.97
2022-12-14T19:46:18.149Z,66.18
2022-12-14T19:48:46.100Z,65.66
2022-12-14T19:51:14.622Z,65.81
2022-12-14T19:53:43.776Z,66.06
2022-12-14T19:56:14.050Z,66.26
2022-12-14T19:58:41.696Z,65.93
2022-12-14T20:01:10.764Z,65.38
2022-12-14T20:03:39.225Z,65.70
2022-12-14T20:06:07.409Z,66.01
2022-12-14T20:08:35.827Z,65.77
2022-12-14T20:11:11.053Z,66.02
2022-12-14T20:13:38.767Z,65.92
2022-12-14T20:16:06.873Z,65.96
2022-12-14T20:18:34.540Z,65.52
2022-12-14T20:21:07.976Z,65.43
2022-12-14T20:23:37.176Z,65.69
2022-12-14T20:26:08.174Z,65.34
2022-12-14T20:28:35.973Z,66.01
2022-12-14T20:31:08.166Z,65.75
2022-12-14T20:33:36.479Z,65.97
2022-12-14T20:36:04.599Z,66.16
2022-12-14T20:38:36.548Z,66.69
2022-12-14T20:41:06.689Z,66.51
2022-12-14T20:43:36.294Z,66.46
2022-12-14T20:46:04.578Z,66.03
2022-12-14T20:48:32.344Z,65.87
2022-12-14T20:51:01.426Z,65.84
2022-12-14T20:53:30.633Z,65.40
2022-12-14T20:56:04.466Z,65.52
2022-12-14T20:58:34.431Z,65.26
2022-12-14T21:01:08.827Z,65.54
2022-12-14T21:03:38.125Z,65.44
2022-12-14T21:06:06.500Z,65.84
2022-12-14T21:08:57.447Z,66.46
2022-12-14T21:11:43.885Z,66.25
2022-12-14T21:14:11.677Z,66.20
2022-12-14T21:16:39.332Z,65.76
2022-12-14T21:19:07.382Z,65.82
2022-12-14T21:21:34.914Z,66.16
2022-12-14T21:24:02.519Z,66.19
2022-12-14T21:26:30.128Z,66.58
2022-12-14T21:28:57.697Z,66.59
2022-12-14T21:31:25.237Z,66.37
2022-12-14T21:33:52.957Z,66.38
2022-12-14T21:36:21.222Z,66.34
2022-12-14T21:38:48.796Z,66.36
2022-12-14T21:41:34.811Z,66.07
2022-12-14T21:44:02.467Z,65.41
2022-12-14T21:46:30.145Z,65.29
2022-12-14T21:48:58.880Z,64.94
2022-12-14T21:51:26.935Z,64.60
2022-12-14T21:53:59.090Z,65.06
2022-12-14T21:56:58.305Z,65.24
2022-12-14T21:59:31.782Z,65.20
2022-12-14T22:02:01.899Z,65.56
2022-12-14T22:04:39.589Z,65.58
2022-12-14T22:07:07.721Z,65.17
2022-12-14T22:09:35.252Z,65.56
2022-12-14T22:12:02.853Z,65.44
2022-12-14T22:14:30.334Z,65.54
2022-12-14T22:16:58.035Z,65.50
2022-12-14T22:19:26.178Z,64.99
2022-12-14T22:21:53.986Z,64.68
2022-12-14T22:24:23.125Z,65.01
2022-12-14T22:26:51.226Z,64.58
2022-12-14T22:29:22.173Z,64.85
2022-12-14T22:31:50.321Z,65.00
2022-12-14T22:34:21.259Z,64.71
2022-12-14T22:36:50.541Z,64.73
2022-12-14T22:39:18.947Z,64.77
2022-12-14T22:41:47.022Z,64.93
2022-12-14T22:44:14.614Z,64.66
2022-12-14T22:46:42.228Z,64.38
2022-12-14T22:49:13.265Z,64.45
2022-12-14T22:51:41.275Z,64.76
2022-12-14T22:54:08.785Z,64.72
2022-12-14T22:56:46.146Z,64.08
2022-12-14T22:59:18.790Z,64.53
2022-12-14T23:01:49.682Z,64.03
2022-12-14T23:04:18.241Z,64.08
2022-12-14T23:06:45.776Z,64.16
2022-12-14T23:09:32.094Z,64.29
2022-12-14T23:12:21.508Z,64.70
2022-12-14T23:15:07.922Z,64.97
2022-12-14T23:17:54.593Z,64.82
2022-12-14T23:20:40.755Z,64.82
2022-12-14T23:23:27.726Z,65.08
2022-12-14T23:26:14.066Z,65.12
2022-12-14T23:29:00.081Z,65.16
2022-12-14T23:31:46.200Z,65.40
2022-12-14T23:34:32.346Z,65.68
2022-12-14T23:37:20.624Z,65.83
2022-12-14T23:40:06.771Z,65.77
2022-12-14T23:42:52.827Z,65.44
2022-12-14T23:45:38.983Z,64.76
2022-12-14T23:48:24.856Z,65.00
2022-12-14T23:51:10.916Z,64.95
2022-12-14T23:53:57.228Z,65.39
2022-12-14T23:56:43.493Z,65.51
2022-12-14T23:59:32.553Z,65.73
